Time;durP1;ratioP1;P1;durP2;ratioP2;P2;SDS_P1;SDS_P2;PMS_P1;PMS_P2;Temp;Humidity;BMP_temperature;BMP_pressure;BME280_temperature;BME280_humidity;BME280_pressure;Samples;Min_cycle;Max_cycle;Signal;HPM_P1;HPM_P2
2021/10/06 00:00:40;;;;;;;6.50;2.05;;;;;;;;;;5009509;28;20138;-69
2021/10/06 00:03:06;;;;;;;7.60;2.10;;;;;;;;;;4992664;28;20042;-69
2021/10/06 00:05:32;;;;;;;11.35;3.97;;;;;;;;;;5002707;28;20132;-69
2021/10/06 00:07:58;;;;;;;13.55;2.78;;;;;;;;;;5006767;28;20080;-69
2021/10/06 00:10:24;;;;;;;9.60;2.33;;;;;;;;;;4993960;28;20050;-69
2021/10/06 00:12:51;;;;;;;9.60;2.90;;;;;;;;;;5004540;28;20557;-69
2021/10/06 00:15:17;;;;;;;8.35;3.03;;;;;;;;;;4991494;28;20544;-69
2021/10/06 00:17:43;;;;;;;9.00;2.50;;;;;;;;;;4991439;28;20053;-69
2021/10/06 00:20:10;;;;;;;9.27;3.55;;;;;;;;;;4991810;28;20144;-69
2021/10/06 00:22:37;;;;;;;12.93;3.60;;;;;;;;;;4991364;28;20053;-69
2021/10/06 00:25:03;;;;;;;9.23;3.25;;;;;;;;;;5004201;28;20042;-69
2021/10/06 00:27:29;;;;;;;6.70;2.80;;;;;;;;;;4984180;28;20078;-69
2021/10/06 00:29:56;;;;;;;11.07;3.63;;;;;;;;;;4988244;28;20092;-69
2021/10/06 00:32:22;;;;;;;10.10;3.00;;;;;;;;;;5002924;28;20034;-69
2021/10/06 00:34:48;;;;;;;11.60;2.72;;;;;;;;;;4984932;28;20050;-69
2021/10/06 00:37:14;;;;;;;11.55;3.45;;;;;;;;;;4984153;28;20120;-69
2021/10/06 00:39:40;;;;;;;13.25;3.28;;;;;;;;;;5008348;28;20033;-69
2021/10/06 00:42:07;;;;;;;10.45;3.30;;;;;;;;;;4991886;28;20149;-69
2021/10/06 00:44:34;;;;;;;13.48;3.20;;;;;;;;;;4990743;28;20050;-69
2021/10/06 00:47:00;;;;;;;12.93;2.80;;;;;;;;;;4992987;28;20050;-69
2021/10/06 00:49:27;;;;;;;13.27;2.72;;;;;;;;;;4992090;28;20042;-69
2021/10/06 00:51:53;;;;;;;15.30;3.45;;;;;;;;;;4993518;28;20425;-69
2021/10/06 00:54:19;;;;;;;11.50;3.28;;;;;;;;;;4993316;28;20045;-69
2021/10/06 00:56:45;;;;;;;8.23;3.10;;;;;;;;;;4992590;28;20054;-69
2021/10/06 00:59:11;;;;;;;9.98;2.67;;;;;;;;;;5002570;28;20133;-69
2021/10/06 01:01:37;;;;;;;10.50;2.80;;;;;;;;;;5006756;28;20046;-69
2021/10/06 01:04:04;;;;;;;5.68;2.00;;;;;;;;;;5006269;28;20042;-69
2021/10/06 01:06:31;;;;;;;13.23;2.20;;;;;;;;;;5008878;28;20054;-69
2021/10/06 01:08:59;;;;;;;12.10;2.63;;;;;;;;;;5008814;28;20068;-69
2021/10/06 01:11:26;;;;;;;12.98;2.85;;;;;;;;;;5009930;28;20049;-69
2021/10/06 01:13:52;;;;;;;6.80;2.08;;;;;;;;;;5007875;28;20442;-69
2021/10/06 01:16:18;;;;;;;6.05;2.47;;;;;;;;;;5009634;28;20034;-69
2021/10/06 01:18:44;;;;;;;13.43;2.63;;;;;;;;;;5009340;28;20129;-69
2021/10/06 01:21:12;;;;;;;9.35;2.45;;;;;;;;;;5006112;28;20046;-69
2021/10/06 01:23:38;;;;;;;11.70;2.65;;;;;;;;;;5008168;28;20133;-69
2021/10/06 01:26:05;;;;;;;13.98;2.90;;;;;;;;;;5019938;28;20037;-69
2021/10/06 01:28:31;;;;;;;10.77;2.78;;;;;;;;;;5009861;28;20057;-69
2021/10/06 01:30:57;;;;;;;9.65;2.20;;;;;;;;;;5009533;28;20076;-69
2021/10/06 01:33:23;;;;;;;9.30;2.40;;;;;;;;;;5011375;28;20373;-69
2021/10/06 01:35:49;;;;;;;14.43;2.78;;;;;;;;;;5011187;28;20064;-69
2021/10/06 01:38:17;;;;;;;7.10;2.80;;;;;;;;;;5001834;28;20060;-69
2021/10/06 01:40:43;;;;;;;7.00;3.00;;;;;;;;;;5001645;28;20041;-69
2021/10/06 01:43:09;;;;;;;11.63;3.20;;;;;;;;;;5007614;28;20050;-69
2021/10/06 01:45:35;;;;;;;11.90;3.28;;;;;;;;;;5006472;28;20048;-69
2021/10/06 01:48:06;;;;;;;16.13;4.38;;;;;;;;;;5009262;28;20038;-69
2021/10/06 01:50:32;;;;;;;11.98;3.53;;;;;;;;;;5009235;28;20042;-69
2021/10/06 01:52:58;;;;;;;10.13;3.50;;;;;;;;;;5008226;28;20125;-69
2021/10/06 01:55:27;;;;;;;9.45;3.50;;;;;;;;;;5008849;28;20367;-68
2021/10/06 01:57:53;;;;;;;11.38;3.92;;;;;;;;;;5005657;28;20053;-69
2021/10/06 02:00:19;;;;;;;8.43;3.35;;;;;;;;;;5008587;28;20073;-69
2021/10/06 02:02:45;;;;;;;14.30;5.28;;;;;;;;;;5007000;28;20092;-69
2021/10/06 02:05:11;;;;;;;16.50;5.97;;;;;;;;;;5007784;28;20342;-69
2021/10/06 02:07:38;;;;;;;13.20;5.78;;;;;;;;;;5006667;28;20053;-69
2021/10/06 02:10:05;;;;;;;12.60;5.97;;;;;;;;;;5006082;28;20635;-69
2021/10/06 02:12:31;;;;;;;13.10;6.45;;;;;;;;;;5008696;28;20588;-69
2021/10/06 02:14:57;;;;;;;15.95;6.68;;;;;;;;;;5008689;28;20422;-69
2021/10/06 02:17:23;;;;;;;14.60;7.20;;;;;;;;;;5004022;28;20038;-69
2021/10/06 02:19:49;;;;;;;17.25;7.30;;;;;;;;;;5009393;28;20104;-69
2021/10/06 02:22:15;;;;;;;15.88;7.95;;;;;;;;;;5006493;28;20120;-69
2021/10/06 02:24:42;;;;;;;14.35;7.07;;;;;;;;;;5007162;28;20049;-69
2021/10/06 02:27:08;;;;;;;11.23;6.90;;;;;;;;;;5007629;28;20057;-69
2021/10/06 02:29:34;;;;;;;13.48;6.72;;;;;;;;;;5010246;28;20053;-69
2021/10/06 02:32:00;;;;;;;16.30;6.65;;;;;;;;;;5008247;28;20069;-69
2021/10/06 02:34:26;;;;;;;13.63;6.53;;;;;;;;;;5008248;28;20048;-69
2021/10/06 02:36:52;;;;;;;12.80;5.93;;;;;;;;;;5009198;28;20072;-69
2021/10/06 02:39:19;;;;;;;15.45;6.40;;;;;;;;;;5004360;28;20042;-69
2021/10/06 02:41:45;;;;;;;13.30;6.55;;;;;;;;;;4999395;28;20041;-69
2021/10/06 02:44:11;;;;;;;19.08;6.90;;;;;;;;;;5001194;28;20074;-69
2021/10/06 02:46:37;;;;;;;13.80;6.63;;;;;;;;;;5000156;28;20054;-69
2021/10/06 02:49:04;;;;;;;19.58;7.57;;;;;;;;;;4994777;28;20045;-69
2021/10/06 02:51:30;;;;;;;19.35;7.95;;;;;;;;;;5003460;28;20093;-69
2021/10/06 02:53:56;;;;;;;27.35;8.02;;;;;;;;;;5007123;28;20046;-69
2021/10/06 02:56:22;;;;;;;22.50;8.50;;;;;;;;;;5006128;28;20576;-68
2021/10/06 02:58:49;;;;;;;20.02;8.40;;;;;;;;;;5006411;28;20081;-68
2021/10/06 03:01:15;;;;;;;19.63;9.82;;;;;;;;;;4989576;28;20545;-68
2021/10/06 03:03:42;;;;;;;19.52;9.45;;;;;;;;;;5005882;28;20048;-68
2021/10/06 03:06:08;;;;;;;19.98;8.57;;;;;;;;;;5009402;28;20050;-68
2021/10/06 03:08:34;;;;;;;21.63;9.27;;;;;;;;;;5011273;28;20038;-68
2021/10/06 03:11:01;;;;;;;17.33;8.98;;;;;;;;;;4994744;28;20133;-68
2021/10/06 03:13:27;;;;;;;23.80;9.45;;;;;;;;;;5010929;28;20042;-69
2021/10/06 03:15:54;;;;;;;18.55;8.88;;;;;;;;;;4993876;28;20703;-68
2021/10/06 03:18:21;;;;;;;17.98;8.25;;;;;;;;;;4993278;28;20053;-69
2021/10/06 03:20:47;;;;;;;18.83;8.60;;;;;;;;;;4995376;28;20056;-68
2021/10/06 03:23:13;;;;;;;15.65;7.50;;;;;;;;;;4993983;28;20057;-68
2021/10/06 03:25:39;;;;;;;21.50;7.82;;;;;;;;;;4995035;28;20486;-69
2021/10/06 03:28:05;;;;;;;17.20;7.40;;;;;;;;;;5004921;28;20524;-69
2021/10/06 03:30:32;;;;;;;17.15;6.90;;;;;;;;;;4993001;28;20563;-68
2021/10/06 03:32:58;;;;;;;16.02;7.35;;;;;;;;;;4995055;28;20060;-68
2021/10/06 03:35:24;;;;;;;18.67;6.43;;;;;;;;;;5007969;28;20038;-68
2021/10/06 03:37:50;;;;;;;17.92;7.30;;;;;;;;;;4992845;28;20056;-68
2021/10/06 03:40:17;;;;;;;19.90;7.50;;;;;;;;;;5010628;28;20046;-68
2021/10/06 03:42:43;;;;;;;18.20;6.75;;;;;;;;;;4995171;28;20041;-68
2021/10/06 03:45:10;;;;;;;17.52;6.57;;;;;;;;;;4993859;28;20044;-68
2021/10/06 03:47:37;;;;;;;12.68;5.72;;;;;;;;;;4991763;28;20081;-68
2021/10/06 03:50:04;;;;;;;18.85;6.55;;;;;;;;;;4994282;28;20120;-68
2021/10/06 03:52:30;;;;;;;14.23;5.95;;;;;;;;;;4988693;28;20054;-68
2021/10/06 03:54:56;;;;;;;14.40;6.18;;;;;;;;;;4993328;28;20042;-69
2021/10/06 03:57:23;;;;;;;13.93;6.05;;;;;;;;;;5003737;28;20046;-68
2021/10/06 03:59:50;;;;;;;13.55;5.07;;;;;;;;;;4988693;28;20480;-68
2021/10/06 04:02:16;;;;;;;12.75;4.03;;;;;;;;;;5003728;28;20141;-68
2021/10/06 04:04:42;;;;;;;9.88;3.40;;;;;;;;;;5002747;28;20053;-68
2021/10/06 04:07:08;;;;;;;10.63;4.47;;;;;;;;;;5001334;28;20045;-68
2021/10/06 04:09:34;;;;;;;9.60;3.92;;;;;;;;;;5008827;28;20478;-68
2021/10/06 04:12:01;;;;;;;11.10;4.57;;;;;;;;;;4990786;28;20588;-69
2021/10/06 04:14:27;;;;;;;10.32;5.35;;;;;;;;;;5001032;28;20525;-68
2021/10/06 04:16:53;;;;;;;10.27;5.07;;;;;;;;;;5009594;28;20474;-69
2021/10/06 04:19:19;;;;;;;16.08;5.90;;;;;;;;;;5005290;28;20052;-69
2021/10/06 04:21:45;;;;;;;15.95;4.70;;;;;;;;;;4990962;28;20080;-68
2021/10/06 04:24:11;;;;;;;10.55;4.40;;;;;;;;;;4992325;28;20041;-68
2021/10/06 04:26:37;;;;;;;12.00;4.47;;;;;;;;;;4992607;28;20050;-68
2021/10/06 04:29:04;;;;;;;14.50;4.78;;;;;;;;;;4993954;28;20038;-69
2021/10/06 04:31:30;;;;;;;11.40;3.85;;;;;;;;;;4993424;28;20299;-69
2021/10/06 04:33:56;;;;;;;11.38;4.40;;;;;;;;;;4993279;28;20100;-69
2021/10/06 04:36:22;;;;;;;14.63;6.40;;;;;;;;;;5009311;28;20038;-68
2021/10/06 04:38:48;;;;;;;10.32;4.97;;;;;;;;;;5009114;28;20108;-68
2021/10/06 04:41:15;;;;;;;12.98;4.70;;;;;;;;;;5005584;28;20375;-69
2021/10/06 04:43:41;;;;;;;15.88;4.22;;;;;;;;;;5008515;28;20060;-68
2021/10/06 04:46:08;;;;;;;10.55;4.53;;;;;;;;;;5006702;28;20068;-69
2021/10/06 04:48:34;;;;;;;10.18;4.43;;;;;;;;;;4991181;28;20057;-68
2021/10/06 04:51:01;;;;;;;11.48;4.82;;;;;;;;;;5008663;28;20049;-69
2021/10/06 04:53:27;;;;;;;11.85;4.55;;;;;;;;;;5009596;28;20045;-69
2021/10/06 04:55:54;;;;;;;12.18;4.50;;;;;;;;;;4989017;28;20042;-69
2021/10/06 04:58:20;;;;;;;10.48;4.32;;;;;;;;;;5003823;28;20051;-68
2021/10/06 05:00:46;;;;;;;9.88;4.00;;;;;;;;;;5017439;28;20058;-69
2021/10/06 05:03:13;;;;;;;10.23;3.63;;;;;;;;;;5008181;28;20855;-69
2021/10/06 05:05:40;;;;;;;7.85;3.55;;;;;;;;;;4999744;28;20033;-67
2021/10/06 05:08:07;;;;;;;9.57;3.15;;;;;;;;;;5001207;28;20415;-68
2021/10/06 05:10:34;;;;;;;8.98;3.10;;;;;;;;;;5004501;28;20188;-70
2021/10/06 05:13:00;;;;;;;5.40;2.63;;;;;;;;;;5004744;28;20050;-68
2021/10/06 05:15:26;;;;;;;5.15;2.67;;;;;;;;;;5008473;28;20038;-68
2021/10/06 05:17:52;;;;;;;10.15;3.40;;;;;;;;;;5002254;28;20045;-68
2021/10/06 05:20:19;;;;;;;11.82;3.38;;;;;;;;;;5006528;28;20052;-68
2021/10/06 05:22:45;;;;;;;14.05;4.28;;;;;;;;;;4996043;28;20050;-68
2021/10/06 05:25:11;;;;;;;14.63;3.28;;;;;;;;;;5007042;28;20474;-68
2021/10/06 05:27:37;;;;;;;8.23;2.97;;;;;;;;;;5006374;28;20054;-68
2021/10/06 05:30:05;;;;;;;10.05;2.92;;;;;;;;;;5007062;28;20110;-68
2021/10/06 05:32:31;;;;;;;8.10;2.70;;;;;;;;;;5008566;28;20046;-69
2021/10/06 05:34:57;;;;;;;9.13;3.30;;;;;;;;;;4991792;28;20072;-69
2021/10/06 05:37:23;;;;;;;7.82;3.00;;;;;;;;;;5006973;28;20038;-67
2021/10/06 05:39:49;;;;;;;8.25;3.50;;;;;;;;;;5022713;28;20046;-68
2021/10/06 05:42:16;;;;;;;6.97;3.30;;;;;;;;;;5008208;28;20057;-68
2021/10/06 05:44:42;;;;;;;12.02;4.32;;;;;;;;;;5006154;28;20049;-68
2021/10/06 05:47:08;;;;;;;11.25;4.85;;;;;;;;;;5008535;28;20075;-68
2021/10/06 05:49:34;;;;;;;14.05;5.03;;;;;;;;;;5007357;28;20092;-68
2021/10/06 05:52:00;;;;;;;11.20;5.07;;;;;;;;;;5005751;28;20130;-68
2021/10/06 05:54:27;;;;;;;9.55;4.65;;;;;;;;;;5008524;28;20750;-68
2021/10/06 05:56:53;;;;;;;15.43;6.30;;;;;;;;;;5003643;28;20053;-68
2021/10/06 05:59:19;;;;;;;17.23;4.97;;;;;;;;;;5001405;28;20474;-67
2021/10/06 06:01:45;;;;;;;12.05;5.50;;;;;;;;;;4990379;28;20397;-68
2021/10/06 06:04:13;;;;;;;11.38;4.50;;;;;;;;;;4991051;28;20140;-69
2021/10/06 06:06:42;;;;;;;10.63;3.83;;;;;;;;;;4988879;28;20050;-68
2021/10/06 06:09:09;;;;;;;12.90;3.65;;;;;;;;;;4990511;28;20057;-67
2021/10/06 06:11:35;;;;;;;7.30;3.08;;;;;;;;;;4987126;28;20108;-68
2021/10/06 06:14:01;;;;;;;9.25;3.20;;;;;;;;;;5003165;28;20037;-68
2021/10/06 06:16:27;;;;;;;8.32;2.65;;;;;;;;;;4991925;28;20030;-68
2021/10/06 06:18:53;;;;;;;7.55;3.30;;;;;;;;;;4985714;28;20046;-68
2021/10/06 06:21:20;;;;;;;9.57;3.03;;;;;;;;;;4993163;28;20517;-68
2021/10/06 06:23:47;;;;;;;11.77;2.95;;;;;;;;;;5008786;28;20042;-68
2021/10/06 06:26:13;;;;;;;13.82;3.38;;;;;;;;;;4991486;28;20080;-68
2021/10/06 06:28:39;;;;;;;8.20;2.83;;;;;;;;;;4987656;28;20108;-68
2021/10/06 06:31:07;;;;;;;16.45;3.00;;;;;;;;;;5010830;28;20049;-68
2021/10/06 06:33:33;;;;;;;8.38;2.25;;;;;;;;;;5010135;28;20042;-68
2021/10/06 06:36:00;;;;;;;9.77;2.85;;;;;;;;;;5003542;28;20077;-68
2021/10/06 06:38:27;;;;;;;10.25;3.35;;;;;;;;;;5005956;28;20121;-68
2021/10/06 06:40:54;;;;;;;12.90;3.50;;;;;;;;;;4988962;28;20041;-68
2021/10/06 06:43:20;;;;;;;12.98;3.90;;;;;;;;;;5011277;28;20145;-68
2021/10/06 06:45:46;;;;;;;11.65;4.93;;;;;;;;;;4990208;28;20056;-68
2021/10/06 06:48:12;;;;;;;15.93;4.88;;;;;;;;;;4975308;28;20042;-68
2021/10/06 06:50:39;;;;;;;13.43;4.88;;;;;;;;;;5011437;28;20116;-68
2021/10/06 06:53:05;;;;;;;8.38;4.82;;;;;;;;;;4990267;28;20046;-68
2021/10/06 06:55:31;;;;;;;10.60;5.50;;;;;;;;;;5008506;28;20053;-68
2021/10/06 06:57:57;;;;;;;9.13;4.50;;;;;;;;;;5005421;28;20054;-68
2021/10/06 07:00:23;;;;;;;10.10;4.60;;;;;;;;;;5008646;28;20054;-68
2021/10/06 07:02:50;;;;;;;12.25;5.57;;;;;;;;;;5001623;28;20289;-68
2021/10/06 07:05:16;;;;;;;12.30;5.18;;;;;;;;;;5007115;28;20347;-68
2021/10/06 07:07:43;;;;;;;14.75;5.05;;;;;;;;;;5008873;28;20184;-68
2021/10/06 07:10:10;;;;;;;12.60;4.38;;;;;;;;;;5012864;28;20057;-68
2021/10/06 07:12:36;;;;;;;8.50;5.20;;;;;;;;;;5016130;28;20046;-68
2021/10/06 07:15:02;;;;;;;9.88;4.90;;;;;;;;;;5009390;28;20048;-75
2021/10/06 07:17:28;;;;;;;8.15;4.72;;;;;;;;;;5008888;28;20050;-72
2021/10/06 07:19:55;;;;;;;8.43;4.30;;;;;;;;;;5008671;28;20054;-68
2021/10/06 07:22:21;;;;;;;10.32;4.50;;;;;;;;;;5011676;28;20053;-68
2021/10/06 07:24:47;;;;;;;8.02;4.75;;;;;;;;;;5012097;28;20042;-68
2021/10/06 07:27:13;;;;;;;10.38;4.50;;;;;;;;;;5012530;28;20042;-68
2021/10/06 07:29:40;;;;;;;8.63;4.03;;;;;;;;;;5009446;28;20049;-68
2021/10/06 07:32:06;;;;;;;9.27;4.78;;;;;;;;;;5012625;28;20147;-68
2021/10/06 07:34:32;;;;;;;9.13;3.75;;;;;;;;;;5012145;28;20049;-68
2021/10/06 07:36:59;;;;;;;12.05;4.57;;;;;;;;;;5010271;28;20053;-68
2021/10/06 07:39:25;;;;;;;8.85;3.95;;;;;;;;;;5011468;28;20034;-68
2021/10/06 07:41:51;;;;;;;9.55;4.00;;;;;;;;;;5011235;28;20073;-68
2021/10/06 07:44:17;;;;;;;7.93;3.90;;;;;;;;;;5010497;28;20046;-68
2021/10/06 07:46:43;;;;;;;10.70;4.30;;;;;;;;;;5010722;28;20084;-68
2021/10/06 07:49:10;;;;;;;7.82;4.07;;;;;;;;;;5012608;28;20299;-68
2021/10/06 07:51:37;;;;;;;9.65;4.20;;;;;;;;;;5009029;28;20517;-68
2021/10/06 07:54:03;;;;;;;5.85;3.58;;;;;;;;;;5011250;28;20052;-68
2021/10/06 07:56:29;;;;;;;8.88;3.80;;;;;;;;;;5010641;28;20460;-68
2021/10/06 07:58:56;;;;;;;8.85;3.78;;;;;;;;;;5011445;28;20485;-68
2021/10/06 08:01:22;;;;;;;9.68;3.92;;;;;;;;;;5008639;28;20050;-68
2021/10/06 08:03:48;;;;;;;6.38;3.80;;;;;;;;;;5009063;28;20072;-68
2021/10/06 08:06:14;;;;;;;8.38;3.67;;;;;;;;;;4993624;28;20045;-68
2021/10/06 08:08:40;;;;;;;6.15;3.42;;;;;;;;;;4993846;28;20121;-68
2021/10/06 08:11:07;;;;;;;8.13;4.13;;;;;;;;;;4992924;28;20488;-69
2021/10/06 08:13:33;;;;;;;6.40;3.45;;;;;;;;;;4992873;28;20069;-69
2021/10/06 08:15:59;;;;;;;8.88;3.70;;;;;;;;;;5011704;28;20462;-69
2021/10/06 08:18:25;;;;;;;8.98;3.80;;;;;;;;;;4992887;28;20470;-69
2021/10/06 08:20:53;;;;;;;6.53;3.50;;;;;;;;;;4993631;28;20128;-68
2021/10/06 08:23:20;;;;;;;8.40;3.60;;;;;;;;;;4992376;28;20113;-69
2021/10/06 08:25:47;;;;;;;6.60;3.60;;;;;;;;;;5011531;28;20085;-68
2021/10/06 08:28:14;;;;;;;9.02;5.30;;;;;;;;;;5010880;28;20092;-68
2021/10/06 08:30:40;;;;;;;7.93;4.13;;;;;;;;;;4977288;28;20046;-69
2021/10/06 08:33:07;;;;;;;6.82;3.75;;;;;;;;;;4990023;28;20043;-68
2021/10/06 08:35:33;;;;;;;6.10;3.22;;;;;;;;;;4990225;28;20095;-68
2021/10/06 08:38:00;;;;;;;8.13;4.00;;;;;;;;;;4993176;28;20049;-68
2021/10/06 08:40:26;;;;;;;9.15;3.95;;;;;;;;;;4992768;28;20042;-69
2021/10/06 08:42:52;;;;;;;7.80;3.60;;;;;;;;;;4992665;28;20049;-68
2021/10/06 08:45:18;;;;;;;5.40;2.95;;;;;;;;;;4992818;28;20049;-69
2021/10/06 08:47:45;;;;;;;6.35;2.88;;;;;;;;;;4990214;28;20050;-68
2021/10/06 08:50:12;;;;;;;4.65;2.72;;;;;;;;;;5010272;28;20498;-68
2021/10/06 08:52:39;;;;;;;7.38;3.13;;;;;;;;;;5010073;28;20060;-67
2021/10/06 08:55:06;;;;;;;4.78;2.92;;;;;;;;;;4991901;28;20053;-67
2021/10/06 08:57:32;;;;;;;4.60;2.80;;;;;;;;;;4992835;28;20053;-67
2021/10/06 08:59:59;;;;;;;6.80;2.35;;;;;;;;;;4989285;28;20057;-67
2021/10/06 09:02:25;;;;;;;4.25;1.80;;;;;;;;;;4992215;28;20050;-67
2021/10/06 09:04:51;;;;;;;5.72;2.13;;;;;;;;;;5009871;28;20410;-67
2021/10/06 09:07:18;;;;;;;5.13;1.83;;;;;;;;;;4991353;28;20454;-67
2021/10/06 09:09:44;;;;;;;5.43;2.58;;;;;;;;;;5011035;28;20073;-67
2021/10/06 09:12:11;;;;;;;5.00;2.72;;;;;;;;;;5011012;28;20498;-67
2021/10/06 09:14:40;;;;;;;3.90;1.52;;;;;;;;;;5009840;28;20410;-67
2021/10/06 09:17:07;;;;;;;3.10;1.50;;;;;;;;;;5011997;28;20050;-67
2021/10/06 09:19:45;;;;;;;5.55;1.75;;;;;;;;;;5010294;28;20068;-67
2021/10/06 09:22:19;;;;;;;3.28;1.33;;;;;;;;;;4992138;28;20053;-67
2021/10/06 09:24:56;;;;;;;3.60;1.63;;;;;;;;;;5010953;28;20034;-67
2021/10/06 09:27:24;;;;;;;3.80;1.52;;;;;;;;;;5010831;28;20100;-67
2021/10/06 09:29:52;;;;;;;3.05;1.23;;;;;;;;;;5008824;28;20048;-67
2021/10/06 09:32:20;;;;;;;1.65;0.90;;;;;;;;;;5007486;28;20100;-67
2021/10/06 09:34:58;;;;;;;3.13;1.17;;;;;;;;;;5010542;28;20049;-67
2021/10/06 09:37:25;;;;;;;4.35;1.38;;;;;;;;;;5009582;28;20052;-68
2021/10/06 09:39:52;;;;;;;4.32;1.15;;;;;;;;;;5006718;28;20038;-67
2021/10/06 09:42:18;;;;;;;2.00;1.05;;;;;;;;;;5007136;28;20054;-67
2021/10/06 09:44:52;;;;;;;2.80;1.10;;;;;;;;;;4989510;28;20115;-67
2021/10/06 09:47:18;;;;;;;;;;;;;;;;;;5008523;28;20486;-67
2021/10/06 09:49:44;;;;;;;3.72;0.90;;;;;;;;;;5009741;28;19972;-67
2021/10/06 09:52:19;;;;;;;3.47;1.25;;;;;;;;;;4992616;28;20462;-70
2021/10/06 09:54:48;;;;;;;1.77;0.75;;;;;;;;;;5005411;28;20053;-70
2021/10/06 09:57:28;;;;;;;3.55;1.10;;;;;;;;;;4991385;28;20100;-67
2021/10/06 09:59:54;;;;;;;3.15;1.08;;;;;;;;;;5002269;28;20076;-67
2021/10/06 10:02:21;;;;;;;4.18;0.98;;;;;;;;;;5008019;28;20092;-69
2021/10/06 10:04:47;;;;;;;4.88;1.38;;;;;;;;;;5004601;28;20088;-70
2021/10/06 10:07:15;;;;;;;2.95;1.10;;;;;;;;;;5021794;28;20046;-69
2021/10/06 10:09:42;;;;;;;2.90;0.98;;;;;;;;;;5014522;28;20038;-69
2021/10/06 10:12:09;;;;;;;2.83;1.00;;;;;;;;;;5006060;28;20568;-69
2021/10/06 10:14:35;;;;;;;2.60;1.00;;;;;;;;;;5006964;28;20045;-69
2021/10/06 10:17:01;;;;;;;3.30;1.20;;;;;;;;;;5001955;28;20427;-69
2021/10/06 10:19:28;;;;;;;3.65;1.02;;;;;;;;;;5007574;28;20045;-69
2021/10/06 10:21:55;;;;;;;3.90;1.08;;;;;;;;;;5008108;28;20198;-69
2021/10/06 10:24:22;;;;;;;4.13;1.23;;;;;;;;;;5008357;28;20092;-69
2021/10/06 10:26:56;;;;;;;3.65;1.10;;;;;;;;;;5011829;28;20387;-68
2021/10/06 10:29:22;;;;;;;;;;;;;;;;;;5012278;28;20441;-70
2021/10/06 10:32:04;;;;;;;3.75;1.58;;;;;;;;;;5012491;28;19917;-69
2021/10/06 10:34:49;;;;;;;3.33;1.10;;;;;;;;;;5013945;28;20049;-70
2021/10/06 10:37:15;;;;;;;2.63;1.13;;;;;;;;;;5014653;28;20073;-71
2021/10/06 10:39:42;;;;;;;3.95;1.10;;;;;;;;;;5013722;28;20140;-71
2021/10/06 10:42:08;;;;;;;5.93;1.10;;;;;;;;;;5013248;28;20335;-71
2021/10/06 10:44:41;;;;;;;3.53;1.10;;;;;;;;;;5013249;28;20092;-71
2021/10/06 10:47:08;;;;;;;3.90;1.00;;;;;;;;;;5013320;28;20082;-71
2021/10/06 10:49:43;;;;;;;3.90;0.80;;;;;;;;;;5014440;28;20042;-70
2021/10/06 10:52:09;;;;;;;2.55;0.85;;;;;;;;;;5014436;28;20394;-70
2021/10/06 10:54:39;;;;;;;2.83;0.90;;;;;;;;;;5012301;28;20390;-70
2021/10/06 10:57:06;;;;;;;4.78;1.35;;;;;;;;;;5013724;28;20061;-70
2021/10/06 10:59:42;;;;;;;3.63;0.90;;;;;;;;;;5014131;28;20042;-70
2021/10/06 11:02:16;;;;;;;2.13;0.80;;;;;;;;;;5013965;28;20137;-70
2021/10/06 11:04:45;;;;;;;3.20;0.80;;;;;;;;;;5009842;28;20050;-70
2021/10/06 11:07:13;;;;;;;2.47;0.88;;;;;;;;;;5013183;28;20049;-70
2021/10/06 11:09:41;;;;;;;2.90;1.10;;;;;;;;;;4996359;28;20076;-70
2021/10/06 11:12:07;;;;;;;2.80;0.98;;;;;;;;;;5013708;28;20034;-70
2021/10/06 11:14:35;;;;;;;5.95;1.95;;;;;;;;;;4992807;28;20053;-70
2021/10/06 11:17:07;;;;;;;7.03;2.05;;;;;;;;;;5014029;28;20042;-70
2021/10/06 11:19:44;;;;;;;4.18;1.35;;;;;;;;;;5013932;28;20050;-70
2021/10/06 11:22:37;;;;;;;3.35;0.98;;;;;;;;;;5012869;28;20378;-70
2021/10/06 11:25:05;;;;;;;3.22;1.17;;;;;;;;;;4995978;28;20447;-70
2021/10/06 11:27:46;;;;;;;4.32;1.50;;;;;;;;;;4994808;28;20433;-70
2021/10/06 11:30:13;;;;;;;4.50;1.27;;;;;;;;;;4992999;28;20053;-70
2021/10/06 11:32:53;;;;;;;4.05;1.10;;;;;;;;;;5013300;28;20038;-70
2021/10/06 11:35:19;;;;;;;5.18;1.40;;;;;;;;;;5008537;28;20453;-70
2021/10/06 11:37:45;;;;;;;5.13;1.48;;;;;;;;;;5013563;28;20108;-70
2021/10/06 11:40:12;;;;;;;2.78;1.00;;;;;;;;;;5013306;28;20544;-70
2021/10/06 11:42:39;;;;;;;3.30;1.00;;;;;;;;;;5012783;28;20409;-70
2021/10/06 11:45:06;;;;;;;3.70;1.08;;;;;;;;;;5010186;28;20084;-70
2021/10/06 11:47:37;;;;;;;2.85;0.98;;;;;;;;;;5013475;28;20067;-70
2021/10/06 11:50:04;;;;;;;4.68;1.08;;;;;;;;;;5012677;28;20069;-70
2021/10/06 11:52:30;;;;;;;4.47;1.45;;;;;;;;;;5012782;28;20046;-70
2021/10/06 11:54:56;;;;;;;3.28;1.20;;;;;;;;;;5013064;28;20188;-70
2021/10/06 11:57:22;;;;;;;2.58;1.15;;;;;;;;;;4999735;28;20102;-70
2021/10/06 11:59:50;;;;;;;5.15;1.25;;;;;;;;;;5012917;28;20046;-70
2021/10/06 12:02:17;;;;;;;2.78;1.08;;;;;;;;;;5012569;28;20046;-70
2021/10/06 12:04:44;;;;;;;4.30;0.90;;;;;;;;;;5010730;28;20053;-70
2021/10/06 12:07:11;;;;;;;3.50;1.00;;;;;;;;;;5011087;28;20545;-70
2021/10/06 12:09:39;;;;;;;2.85;0.98;;;;;;;;;;5013092;28;20048;-70
2021/10/06 12:12:08;;;;;;;2.42;0.93;;;;;;;;;;5011940;28;20134;-70
2021/10/06 12:14:41;;;;;;;1.20;0.60;;;;;;;;;;5012699;28;20128;-70
2021/10/06 12:17:11;;;;;;;2.22;0.70;;;;;;;;;;5012042;28;20125;-70
2021/10/06 12:19:37;;;;;;;2.55;0.73;;;;;;;;;;5012920;28;20160;-70
2021/10/06 12:22:07;;;;;;;4.00;1.00;;;;;;;;;;5012959;28;20144;-70
2021/10/06 12:24:35;;;;;;;3.38;0.77;;;;;;;;;;5009946;28;20465;-71
2021/10/06 12:27:01;;;;;;;2.45;0.70;;;;;;;;;;5012226;28;20448;-70
2021/10/06 12:29:29;;;;;;;2.95;0.82;;;;;;;;;;5012161;28;20042;-70
2021/10/06 12:32:10;;;;;;;2.58;0.70;;;;;;;;;;5011777;28;20438;-70
2021/10/06 12:34:36;;;;;;;3.13;0.70;;;;;;;;;;5010854;28;20128;-70
2021/10/06 12:37:04;;;;;;;3.42;0.98;;;;;;;;;;5012270;28;20504;-71
2021/10/06 12:39:31;;;;;;;3.15;0.90;;;;;;;;;;5009012;28;20070;-71
2021/10/06 12:42:00;;;;;;;2.17;0.80;;;;;;;;;;5012736;28;20100;-71
2021/10/06 12:44:28;;;;;;;3.25;0.80;;;;;;;;;;5011141;28;20049;-71
2021/10/06 12:46:55;;;;;;;1.60;0.88;;;;;;;;;;5011093;28;20437;-70
2021/10/06 12:49:21;;;;;;;3.10;1.08;;;;;;;;;;5010984;28;20050;-71
2021/10/06 12:51:53;;;;;;;3.45;0.80;;;;;;;;;;5010237;28;20078;-70
2021/10/06 12:54:21;;;;;;;1.73;0.70;;;;;;;;;;5010321;28;20049;-70
2021/10/06 12:56:47;;;;;;;2.30;0.80;;;;;;;;;;5009629;28;20457;-70
2021/10/06 12:59:14;;;;;;;1.52;0.60;;;;;;;;;;5011219;28;20418;-70
2021/10/06 13:01:41;;;;;;;3.75;0.95;;;;;;;;;;5011960;28;20054;-70
2021/10/06 13:04:10;;;;;;;2.53;0.73;;;;;;;;;;5010331;28;20510;-70
2021/10/06 13:06:38;;;;;;;1.88;0.68;;;;;;;;;;5011239;28;20073;-70
2021/10/06 13:09:06;;;;;;;2.83;0.95;;;;;;;;;;5011575;28;20054;-70
2021/10/06 13:11:33;;;;;;;1.90;0.70;;;;;;;;;;5011880;28;20440;-70
2021/10/06 13:13:59;;;;;;;3.88;0.70;;;;;;;;;;5009625;28;20509;-70
2021/10/06 13:16:25;;;;;;;2.33;0.60;;;;;;;;;;5010039;28;20037;-70
2021/10/06 13:18:54;;;;;;;2.55;0.70;;;;;;;;;;5025343;28;20046;-70
2021/10/06 13:21:20;;;;;;;2.38;0.75;;;;;;;;;;5009262;28;20057;-70
2021/10/06 13:23:46;;;;;;;2.90;0.80;;;;;;;;;;5011761;28;20056;-70
2021/10/06 13:26:12;;;;;;;1.50;0.50;;;;;;;;;;5008982;28;20045;-70
2021/10/06 13:28:38;;;;;;;2.10;1.00;;;;;;;;;;5008500;28;20124;-70
2021/10/06 13:31:06;;;;;;;2.10;0.80;;;;;;;;;;5009935;28;20145;-70
2021/10/06 13:33:33;;;;;;;5.50;1.27;;;;;;;;;;5011219;28;20045;-70
2021/10/06 13:36:00;;;;;;;4.18;1.02;;;;;;;;;;5009290;28;20056;-70
2021/10/06 13:38:27;;;;;;;3.10;1.17;;;;;;;;;;5011398;28;20042;-70
2021/10/06 13:40:53;;;;;;;2.10;1.10;;;;;;;;;;5010029;28;20053;-70
2021/10/06 13:43:19;;;;;;;3.20;1.38;;;;;;;;;;5010532;28;20073;-70
2021/10/06 13:45:46;;;;;;;3.28;1.13;;;;;;;;;;5011282;28;20536;-70
2021/10/06 13:48:12;;;;;;;2.90;0.98;;;;;;;;;;5010818;28;20073;-70
2021/10/06 13:50:39;;;;;;;3.83;1.58;;;;;;;;;;5009919;28;20108;-70
2021/10/06 13:53:05;;;;;;;3.10;1.40;;;;;;;;;;5011632;28;20111;-70
2021/10/06 13:55:31;;;;;;;2.20;1.42;;;;;;;;;;5025113;28;20042;-69
2021/10/06 13:57:58;;;;;;;2.05;0.90;;;;;;;;;;5007997;28;20089;-70
2021/10/06 14:00:26;;;;;;;3.17;1.10;;;;;;;;;;5010789;28;20038;-70
2021/10/06 14:02:53;;;;;;;1.85;0.90;;;;;;;;;;5010339;28;20038;-70
2021/10/06 14:05:19;;;;;;;3.95;1.30;;;;;;;;;;5011126;28;20053;-70
2021/10/06 14:07:45;;;;;;;2.90;0.90;;;;;;;;;;5010734;28;20081;-70
2021/10/06 14:10:12;;;;;;;2.00;1.00;;;;;;;;;;5008755;28;20077;-70
2021/10/06 14:12:38;;;;;;;3.15;0.90;;;;;;;;;;5009325;28;20466;-69
2021/10/06 14:15:04;;;;;;;4.32;1.15;;;;;;;;;;5010940;28;20048;-69
2021/10/06 14:17:31;;;;;;;3.47;1.30;;;;;;;;;;5009463;28;20047;-69
2021/10/06 14:19:57;;;;;;;2.58;0.95;;;;;;;;;;5009337;28;20199;-69
2021/10/06 14:22:23;;;;;;;2.63;1.30;;;;;;;;;;5005460;28;20120;-69
2021/10/06 14:24:49;;;;;;;2.53;1.00;;;;;;;;;;5003649;28;20478;-69
2021/10/06 14:27:16;;;;;;;1.85;0.60;;;;;;;;;;5006045;28;20057;-69
2021/10/06 14:29:42;;;;;;;1.23;0.80;;;;;;;;;;5010136;28;20054;-69
2021/10/06 14:32:08;;;;;;;3.03;0.88;;;;;;;;;;4998048;28;20386;-69
2021/10/06 14:34:34;;;;;;;2.25;0.82;;;;;;;;;;5001659;28;20101;-69
2021/10/06 14:37:00;;;;;;;1.90;0.80;;;;;;;;;;5007611;28;20053;-69